createdAt,value
2019-02-24T00:01:22.649Z,32.37
2019-02-24T00:03:51.892Z,32.63
2019-02-24T00:06:21.127Z,32.67
2019-02-24T00:08:50.323Z,32.62
2019-02-24T00:11:19.685Z,32.58
2019-02-24T00:13:48.885Z,32.67
2019-02-24T00:16:26.111Z,32.89
2019-02-24T00:18:55.640Z,32.47
2019-02-24T00:23:59.583Z,32.62
2019-02-24T00:26:28.795Z,32.66
2019-02-24T00:28:57.974Z,32.88
2019-02-24T00:31:27.154Z,32.61
2019-02-24T00:33:56.404Z,32.72
2019-02-24T00:36:25.593Z,32.56
2019-02-24T00:38:54.838Z,33.12
2019-02-24T00:41:24.018Z,32.44
2019-02-24T00:43:53.266Z,32.85
2019-02-24T00:46:22.447Z,33.02
2019-02-24T00:48:51.691Z,33.16
2019-02-24T00:51:20.892Z,33.06
2019-02-24T00:53:50.447Z,32.73
2019-02-24T00:56:19.656Z,33.15
2019-02-24T00:58:48.893Z,33.57
2019-02-24T01:04:26.758Z,33.28
2019-02-24T01:06:55.959Z,32.88
2019-02-24T01:09:25.258Z,33.05
2019-02-24T01:11:54.460Z,33.12
2019-02-24T01:14:23.708Z,32.96
2019-02-24T01:16:52.895Z,33.22
2019-02-24T01:19:22.343Z,33.27
2019-02-24T01:21:51.543Z,32.73
2019-02-24T01:24:20.793Z,33.68
2019-02-24T01:26:49.986Z,33.12
2019-02-24T01:29:19.246Z,33.62
2019-02-24T01:31:48.811Z,33.75
2019-02-24T01:34:18.049Z,33.50
2019-02-24T01:36:47.228Z,33.16
2019-02-24T01:39:16.472Z,33.35
2019-02-24T01:41:45.674Z,33.87
2019-02-24T01:44:15.224Z,33.54
2019-02-24T01:46:44.408Z,33.70
2019-02-24T01:49:13.639Z,33.84
2019-02-24T01:51:42.838Z,34.23
2019-02-24T01:54:12.097Z,35.01
2019-02-24T01:56:41.287Z,35.28
2019-02-24T01:59:10.799Z,35.31
2019-02-24T02:01:40.041Z,34.79
2019-02-24T02:04:09.279Z,34.31
2019-02-24T02:06:38.851Z,34.11
2019-02-24T02:09:08.226Z,34.33
2019-02-24T02:11:37.465Z,33.76
2019-02-24T02:14:06.962Z,33.66
2019-02-24T02:16:36.209Z,33.67
2019-02-24T02:19:05.398Z,33.72
2019-02-24T02:21:34.635Z,33.76
2019-02-24T02:24:03.833Z,34.05
2019-02-24T02:26:33.074Z,34.16
2019-02-24T02:29:02.625Z,34.87
2019-02-24T02:31:31.867Z,35.43
2019-02-24T02:34:01.027Z,35.32
2019-02-24T02:36:30.295Z,35.08
2019-02-24T02:38:59.864Z,34.81
2019-02-24T02:41:29.465Z,34.74
2019-02-24T02:43:58.653Z,34.57
2019-02-24T02:46:27.886Z,34.47
2019-02-24T02:48:57.111Z,34.39
2019-02-24T02:51:26.359Z,34.50
2019-02-24T02:53:55.549Z,34.26
2019-02-24T02:56:24.737Z,34.63
2019-02-24T02:58:54.767Z,34.45
2019-02-24T03:01:24.879Z,34.63
2019-02-24T03:03:54.497Z,34.46
2019-02-24T03:09:17.869Z,34.68
2019-02-24T03:11:47.056Z,34.73
2019-02-24T03:14:16.295Z,34.92
2019-02-24T03:16:45.469Z,34.84
2019-02-24T03:19:14.699Z,35.07
2019-02-24T03:21:43.877Z,35.11
2019-02-24T03:26:47.518Z,35.23
2019-02-24T03:29:16.754Z,35.03
2019-02-24T03:31:45.928Z,35.10
2019-02-24T03:34:15.185Z,35.41
2019-02-24T03:36:51.487Z,35.21
2019-02-24T03:39:21.350Z,35.27
2019-02-24T03:41:50.530Z,35.60
2019-02-24T03:44:19.711Z,35.57
2019-02-24T03:46:49.236Z,35.85
2019-02-24T03:49:18.429Z,35.50
2019-02-24T03:51:47.668Z,35.26
2019-02-24T03:54:16.852Z,35.06
2019-02-24T03:56:46.108Z,35.90
2019-02-24T03:59:15.494Z,36.57
2019-02-24T04:01:46.271Z,37.17
2019-02-24T04:04:15.533Z,37.36
2019-02-24T04:06:44.776Z,37.57
2019-02-24T04:09:13.969Z,36.67
2019-02-24T04:11:43.326Z,36.00
2019-02-24T04:14:12.884Z,36.00
2019-02-24T04:16:42.115Z,35.79
2019-02-24T04:19:11.296Z,36.18
2019-02-24T04:21:40.537Z,36.36
2019-02-24T04:24:09.728Z,36.26
2019-02-24T04:26:38.972Z,35.78
2019-02-24T04:29:08.164Z,36.09
2019-02-24T04:31:37.405Z,36.11
2019-02-24T04:34:06.611Z,35.74
2019-02-24T04:36:35.846Z,35.82
2019-02-24T04:39:44.427Z,35.73
2019-02-24T04:44:48.727Z,36.22
2019-02-24T04:47:18.636Z,36.10
2019-02-24T04:49:47.826Z,36.35
2019-02-24T04:52:17.061Z,36.33
2019-02-24T04:54:47.065Z,36.34
2019-02-24T04:57:16.319Z,36.22
2019-02-24T04:59:45.517Z,36.21
2019-02-24T05:02:14.793Z,36.57
2019-02-24T05:04:44.027Z,36.72
2019-02-24T05:07:13.200Z,36.74
2019-02-24T05:09:42.438Z,36.51
2019-02-24T05:12:11.633Z,36.46
2019-02-24T05:14:40.866Z,36.58
2019-02-24T05:17:10.851Z,36.89
2019-02-24T05:19:40.123Z,36.70
2019-02-24T05:22:09.319Z,37.00
2019-02-24T05:24:38.560Z,36.98
2019-02-24T05:27:07.746Z,36.90
2019-02-24T05:29:45.217Z,36.94
2019-02-24T05:32:07.943Z,37.04
2019-02-24T05:34:37.110Z,37.00
2019-02-24T05:37:06.352Z,36.91
2019-02-24T05:39:35.542Z,36.91
2019-02-24T05:42:05.113Z,37.26
2019-02-24T05:44:34.289Z,37.14
2019-02-24T05:47:03.537Z,37.43
2019-02-24T05:49:32.719Z,37.79
2019-02-24T05:52:01.951Z,37.93
2019-02-24T05:54:31.578Z,38.03
2019-02-24T05:57:00.813Z,37.69
2019-02-24T05:59:30.310Z,37.94
2019-02-24T06:01:59.552Z,38.06
2019-02-24T06:04:28.804Z,38.40
2019-02-24T06:06:58.053Z,38.52
2019-02-24T06:12:15.826Z,38.04
2019-02-24T06:14:45.012Z,38.29
2019-02-24T06:17:14.247Z,38.17
2019-02-24T06:19:43.431Z,38.10
2019-02-24T06:22:12.693Z,37.90
2019-02-24T06:24:41.895Z,38.06
2019-02-24T06:27:11.082Z,37.89
2019-02-24T06:29:40.343Z,38.16
2019-02-24T06:32:09.510Z,38.30
2019-02-24T06:34:38.742Z,38.44
2019-02-24T06:37:07.923Z,38.18
2019-02-24T06:39:37.158Z,38.85
2019-02-24T06:42:06.343Z,38.68
2019-02-24T06:44:35.601Z,38.02
2019-02-24T06:47:04.777Z,37.89
2019-02-24T06:49:34.022Z,37.91
2019-02-24T06:52:03.188Z,37.92
2019-02-24T06:54:32.419Z,37.97
2019-02-24T06:57:01.602Z,38.09
2019-02-24T06:59:30.841Z,37.80
2019-02-24T07:02:00.023Z,37.34
2019-02-24T07:04:29.308Z,37.15
2019-02-24T07:06:58.489Z,37.31
2019-02-24T07:09:27.749Z,37.38
2019-02-24T07:11:57.202Z,38.01
2019-02-24T07:14:26.393Z,37.36
2019-02-24T07:16:55.626Z,37.10
2019-02-24T07:19:25.181Z,37.31
2019-02-24T07:21:54.412Z,37.37
2019-02-24T07:24:23.656Z,37.20
2019-02-24T07:26:53.210Z,37.13
2019-02-24T07:29:41.317Z,37.04
2019-02-24T07:32:10.565Z,36.82
2019-02-24T07:34:39.752Z,36.77
2019-02-24T07:37:13.013Z,37.17
2019-02-24T07:39:40.935Z,36.83
2019-02-24T07:42:10.168Z,36.77
2019-02-24T07:44:39.344Z,36.69
2019-02-24T07:47:08.587Z,36.65
2019-02-24T07:49:37.784Z,36.71
2019-02-24T07:52:07.058Z,36.57
2019-02-24T07:54:36.256Z,36.45
2019-02-24T07:57:05.443Z,36.48
2019-02-24T07:59:34.686Z,36.42
2019-02-24T08:02:04.533Z,36.76
2019-02-24T08:04:34.234Z,36.51
2019-02-24T08:07:03.409Z,36.71
2019-02-24T08:09:32.658Z,36.96
2019-02-24T08:12:02.248Z,36.87
2019-02-24T08:14:31.488Z,37.17
2019-02-24T08:17:01.073Z,36.99
2019-02-24T08:19:30.307Z,36.80
2019-02-24T08:22:00.163Z,37.11
2019-02-24T08:24:29.412Z,36.91
2019-02-24T08:26:58.655Z,36.82
2019-02-24T08:30:07.519Z,36.52
2019-02-24T08:32:36.743Z,37.07
2019-02-24T08:35:06.229Z,37.83
2019-02-24T08:37:35.415Z,37.61
2019-02-24T08:40:04.812Z,38.09
2019-02-24T08:42:34.341Z,38.48
2019-02-24T08:45:03.586Z,38.75
2019-02-24T08:47:32.780Z,38.50
2019-02-24T08:50:02.356Z,38.82
2019-02-24T08:52:31.538Z,38.63
2019-02-24T08:55:00.771Z,38.56
2019-02-24T08:57:29.953Z,38.09
2019-02-24T08:59:59.213Z,38.84
2019-02-24T09:02:28.395Z,38.21
2019-02-24T09:04:57.694Z,37.44
2019-02-24T09:07:26.882Z,37.61
2019-02-24T09:09:56.130Z,38.06
2019-02-24T09:12:25.318Z,37.89
2019-02-24T09:14:54.557Z,37.85
2019-02-24T09:17:23.781Z,37.28
2019-02-24T09:19:53.057Z,37.63
2019-02-24T09:22:22.233Z,38.18
2019-02-24T09:24:51.464Z,38.02
2019-02-24T09:27:20.645Z,37.65
2019-02-24T09:29:49.885Z,37.66
2019-02-24T09:32:19.133Z,37.52
2019-02-24T09:34:48.717Z,37.38
2019-02-24T09:37:18.334Z,36.87
2019-02-24T09:39:48.032Z,35.96
2019-02-24T09:42:17.231Z,35.81
2019-02-24T09:44:46.476Z,35.36
2019-02-24T09:47:15.654Z,35.49
2019-02-24T09:49:45.232Z,35.37
2019-02-24T09:52:14.469Z,35.04
2019-02-24T09:54:43.948Z,34.64
2019-02-24T09:57:13.540Z,34.27
2019-02-24T09:59:43.311Z,34.09
2019-02-24T10:02:12.570Z,33.99
2019-02-24T10:04:41.813Z,33.83
2019-02-24T10:07:11.094Z,33.61
2019-02-24T10:09:40.658Z,34.09
2019-02-24T10:12:10.041Z,33.54
2019-02-24T10:14:39.265Z,33.72
2019-02-24T10:17:08.503Z,33.91
2019-02-24T10:19:37.675Z,33.90
2019-02-24T10:22:06.927Z,33.92
2019-02-24T10:24:36.404Z,33.84
2019-02-24T10:27:05.648Z,34.20
2019-02-24T10:29:34.844Z,33.90
2019-02-24T10:32:04.081Z,33.74
2019-02-24T10:34:33.557Z,33.85
2019-02-24T10:37:03.158Z,34.23
2019-02-24T10:39:32.343Z,34.32
2019-02-24T10:42:01.623Z,34.36
2019-02-24T10:44:30.817Z,34.73
2019-02-24T10:47:02.155Z,34.75
2019-02-24T10:49:31.002Z,34.87
2019-02-24T10:52:00.280Z,35.28
2019-02-24T10:54:29.514Z,35.55
2019-02-24T10:56:58.759Z,35.65
2019-02-24T10:59:27.954Z,35.88
2019-02-24T11:01:57.223Z,36.06
2019-02-24T11:04:26.566Z,36.19
2019-02-24T11:06:55.827Z,36.13
2019-02-24T11:09:25.077Z,36.55
2019-02-24T11:11:54.597Z,36.63
2019-02-24T11:14:23.840Z,36.38
2019-02-24T11:16:53.026Z,36.52
2019-02-24T11:19:22.319Z,36.66
2019-02-24T11:21:51.513Z,36.33
2019-02-24T11:24:20.758Z,36.51
2019-02-24T11:26:49.953Z,36.43
2019-02-24T11:29:19.214Z,36.16
2019-02-24T11:31:48.400Z,36.17
2019-02-24T11:34:17.978Z,35.92
2019-02-24T11:36:47.183Z,35.69
2019-02-24T11:39:16.376Z,35.68
2019-02-24T11:41:45.630Z,35.49
2019-02-24T11:44:14.887Z,35.47
2019-02-24T11:46:44.116Z,35.48
2019-02-24T11:49:13.305Z,35.68
2019-02-24T11:51:42.880Z,35.45
2019-02-24T11:54:12.376Z,35.53
2019-02-24T11:56:41.609Z,35.62
2019-02-24T11:59:10.795Z,35.73
2019-02-24T12:01:47.352Z,35.78
2019-02-24T12:04:11.023Z,35.84
2019-02-24T12:06:40.249Z,35.77
2019-02-24T12:09:09.711Z,35.78
2019-02-24T12:11:39.282Z,35.69
2019-02-24T12:14:08.517Z,35.85
2019-02-24T12:16:38.023Z,36.11
2019-02-24T12:19:07.311Z,36.37
2019-02-24T12:21:36.509Z,36.75
2019-02-24T12:24:05.768Z,36.77
2019-02-24T12:26:35.228Z,36.60
2019-02-24T12:29:04.496Z,36.53
2019-02-24T12:31:34.029Z,36.47
2019-02-24T12:34:03.314Z,36.25
2019-02-24T12:36:32.500Z,36.03
2019-02-24T12:39:01.756Z,36.02
2019-02-24T12:41:31.229Z,35.89
2019-02-24T12:44:00.472Z,35.63
2019-02-24T12:46:29.675Z,35.31
2019-02-24T12:48:58.930Z,35.26
2019-02-24T12:51:28.125Z,35.31
2019-02-24T12:53:57.408Z,35.42
2019-02-24T12:56:26.604Z,35.21
2019-02-24T12:58:55.860Z,35.31
2019-02-24T13:01:25.051Z,35.37
2019-02-24T13:03:54.346Z,35.26
2019-02-24T13:06:23.532Z,35.82
2019-02-24T13:08:52.781Z,35.00
2019-02-24T13:11:22.321Z,35.30
2019-02-24T13:13:51.554Z,35.03
2019-02-24T13:16:20.752Z,34.92
2019-02-24T13:18:49.987Z,35.15
2019-02-24T13:21:19.184Z,34.96
2019-02-24T13:23:48.435Z,35.01
2019-02-24T13:26:17.702Z,34.94
2019-02-24T13:28:50.509Z,34.89
2019-02-24T13:31:18.216Z,34.90
2019-02-24T13:33:48.085Z,34.95
2019-02-24T13:36:17.336Z,35.04
2019-02-24T13:38:46.732Z,35.29
2019-02-24T13:41:15.908Z,35.37
2019-02-24T13:43:45.208Z,35.41
2019-02-24T13:46:14.429Z,35.60
2019-02-24T13:48:43.692Z,35.67
2019-02-24T13:51:13.140Z,35.86
2019-02-24T13:53:42.395Z,35.81
2019-02-24T13:56:12.071Z,35.87
2019-02-24T13:58:41.317Z,36.36
2019-02-24T14:01:10.646Z,36.08
2019-02-24T14:03:39.910Z,35.99
2019-02-24T14:06:09.309Z,35.71
2019-02-24T14:08:38.525Z,35.66
2019-02-24T14:14:02.679Z,35.14
2019-02-24T14:16:32.288Z,35.23
2019-02-24T14:19:01.890Z,35.13
2019-02-24T14:21:31.208Z,35.11
2019-02-24T14:24:00.490Z,34.93
2019-02-24T14:26:29.828Z,34.67
2019-02-24T14:28:59.083Z,34.68
2019-02-24T14:31:28.720Z,34.00
2019-02-24T14:33:58.075Z,33.30
2019-02-24T14:42:04.185Z,32.00
2019-02-24T14:47:23.492Z,30.35
2019-02-24T14:49:52.864Z,29.63
2019-02-24T14:52:22.458Z,29.19
2019-02-24T14:54:51.669Z,28.50
2019-02-24T14:57:20.991Z,29.30
2019-02-24T14:59:50.225Z,27.66
2019-02-24T15:02:20.659Z,27.08
2019-02-24T15:05:30.662Z,26.36
2019-02-24T15:08:00.373Z,25.47
2019-02-24T15:10:29.982Z,24.11
2019-02-24T15:13:00.928Z,22.63
2019-02-24T15:15:33.108Z,21.44
2019-02-24T15:18:01.195Z,20.69
2019-02-24T15:20:30.506Z,20.17
2019-02-24T15:22:59.750Z,18.91
2019-02-24T15:25:28.932Z,18.59
2019-02-24T15:27:58.183Z,18.19
2019-02-24T15:30:29.717Z,18.79
2019-02-24T15:32:58.992Z,17.84
2019-02-24T15:35:28.194Z,17.95
2019-02-24T15:37:57.412Z,19.27
2019-02-24T15:40:26.669Z,20.50
2019-02-24T15:42:55.918Z,23.15
2019-02-24T15:45:25.147Z,25.58
2019-02-24T15:47:54.328Z,27.57
2019-02-24T15:50:23.587Z,29.33
2019-02-24T15:53:11.857Z,27.91
2019-02-24T15:55:41.109Z,27.91
2019-02-24T15:58:10.314Z,25.64
2019-02-24T16:00:39.670Z,25.24
2019-02-24T16:03:08.873Z,26.52
2019-02-24T16:05:38.182Z,27.97
2019-02-24T16:08:26.463Z,30.68
2019-02-24T16:10:55.733Z,30.68
2019-02-24T16:13:24.934Z,31.61
2019-02-24T16:15:54.177Z,32.45
2019-02-24T16:18:23.373Z,32.99
2019-02-24T16:20:52.637Z,33.54
2019-02-24T16:23:22.210Z,33.99
2019-02-24T16:25:51.528Z,34.21
2019-02-24T16:28:21.185Z,34.42
2019-02-24T16:30:50.440Z,34.73
2019-02-24T16:33:19.612Z,34.85
2019-02-24T16:35:48.889Z,35.16
2019-02-24T16:38:18.350Z,35.14
2019-02-24T16:40:47.541Z,35.36
2019-02-24T16:43:16.815Z,35.43
2019-02-24T16:45:46.007Z,35.62
2019-02-24T16:48:15.610Z,35.58
2019-02-24T16:50:44.799Z,35.86
2019-02-24T16:53:14.045Z,36.02
2019-02-24T16:55:43.221Z,36.17
2019-02-24T16:58:12.804Z,36.12
2019-02-24T17:00:42.003Z,36.35
2019-02-24T17:03:19.689Z,36.44
2019-02-24T17:05:42.992Z,36.55
2019-02-24T17:08:12.278Z,36.59
2019-02-24T17:10:42.359Z,37.49
2019-02-24T17:13:11.591Z,37.13
2019-02-24T17:15:40.835Z,37.32
2019-02-24T17:18:10.030Z,36.92
2019-02-24T17:20:39.658Z,36.84
2019-02-24T17:23:09.173Z,36.69
2019-02-24T17:25:39.020Z,36.68
2019-02-24T17:28:08.206Z,36.73
2019-02-24T17:30:37.477Z,37.10
2019-02-24T17:33:06.976Z,36.73
2019-02-24T17:35:36.231Z,36.64
2019-02-24T17:38:05.422Z,36.84
2019-02-24T17:40:34.691Z,36.75
2019-02-24T17:43:03.887Z,36.81
2019-02-24T17:45:33.582Z,36.86
2019-02-24T17:48:02.903Z,36.94
2019-02-24T17:50:32.564Z,37.01
2019-02-24T17:53:01.805Z,37.16
2019-02-24T17:55:31.350Z,36.80
2019-02-24T17:58:00.753Z,36.66
2019-02-24T18:05:57.826Z,36.85
2019-02-24T18:08:28.400Z,37.06
2019-02-24T18:10:58.051Z,36.80
2019-02-24T18:13:27.302Z,37.05
2019-02-24T18:15:56.498Z,37.11
2019-02-24T18:18:25.791Z,37.11
2019-02-24T18:20:55.316Z,36.83
2019-02-24T18:23:24.522Z,36.68
2019-02-24T18:26:13.177Z,36.61
2019-02-24T18:28:42.776Z,36.54
2019-02-24T18:31:12.061Z,36.73
2019-02-24T18:33:48.084Z,36.79
2019-02-24T18:36:12.632Z,36.86
2019-02-24T18:38:41.825Z,36.89
2019-02-24T18:41:11.121Z,36.98
2019-02-24T18:43:40.319Z,36.82
2019-02-24T18:46:10.131Z,37.04
2019-02-24T18:48:39.314Z,36.61
2019-02-24T18:51:08.575Z,36.79
2019-02-24T18:53:56.751Z,36.69
2019-02-24T18:56:26.059Z,36.29
2019-02-24T18:58:55.287Z,36.35
2019-02-24T19:01:24.874Z,36.48
2019-02-24T19:03:57.546Z,36.70
2019-02-24T19:06:25.196Z,36.25
2019-02-24T19:08:54.389Z,36.37
2019-02-24T19:11:23.630Z,36.52
2019-02-24T19:13:52.979Z,36.62
2019-02-24T19:16:22.224Z,37.02
2019-02-24T19:18:51.425Z,37.23
2019-02-24T19:21:20.678Z,37.01
2019-02-24T19:23:49.877Z,37.27
2019-02-24T19:26:19.128Z,37.55
2019-02-24T19:28:48.343Z,36.66
2019-02-24T19:31:17.624Z,36.98
2019-02-24T19:33:46.802Z,36.60
2019-02-24T19:36:16.068Z,36.65
2019-02-24T19:38:45.270Z,36.52
2019-02-24T19:41:14.507Z,37.34
2019-02-24T19:43:43.703Z,37.29
2019-02-24T19:46:12.961Z,36.79
2019-02-24T19:48:42.353Z,36.63
2019-02-24T19:51:13.530Z,36.49
2019-02-24T19:53:42.943Z,36.57
2019-02-24T19:56:12.177Z,36.38
2019-02-24T19:58:41.385Z,36.49
2019-02-24T20:01:10.667Z,36.63
2019-02-24T20:03:39.864Z,36.75
2019-02-24T20:06:09.441Z,36.64
2019-02-24T20:08:38.690Z,36.42
2019-02-24T20:11:07.901Z,36.57
2019-02-24T20:13:37.892Z,36.52
2019-02-24T20:16:07.081Z,36.42
2019-02-24T20:18:36.355Z,36.38
2019-02-24T20:21:07.926Z,36.80
2019-02-24T20:23:37.309Z,36.53
2019-02-24T20:26:06.490Z,36.63
2019-02-24T20:28:35.724Z,36.44
2019-02-24T20:31:04.907Z,36.38
2019-02-24T20:36:29.908Z,36.47
2019-02-24T20:39:00.104Z,36.49
2019-02-24T20:41:29.293Z,36.33
2019-02-24T20:43:58.538Z,36.51
2019-02-24T20:46:27.725Z,36.46
2019-02-24T20:48:57.667Z,36.69
2019-02-24T20:51:26.866Z,37.04
2019-02-24T20:53:56.467Z,36.92
2019-02-24T20:56:25.651Z,37.16
2019-02-24T20:58:54.892Z,37.14
2019-02-24T21:01:24.070Z,36.68
2019-02-24T21:03:53.355Z,36.38
2019-02-24T21:06:22.532Z,36.30
2019-02-24T21:08:52.134Z,36.32
2019-02-24T21:11:21.320Z,36.46
2019-02-24T21:13:50.558Z,36.16
2019-02-24T21:16:19.741Z,36.36
2019-02-24T21:18:48.960Z,36.09
2019-02-24T21:21:18.134Z,35.81
2019-02-24T21:23:47.373Z,35.67
2019-02-24T21:26:16.562Z,35.61
2019-02-24T21:28:45.785Z,35.51
2019-02-24T21:31:14.971Z,35.46
2019-02-24T21:33:44.529Z,35.26
2019-02-24T21:36:13.710Z,35.14
2019-02-24T21:38:42.897Z,35.00
2019-02-24T21:41:12.139Z,34.96
2019-02-24T21:43:41.330Z,34.99
2019-02-24T21:46:10.595Z,35.18
2019-02-24T21:48:39.778Z,35.08
2019-02-24T21:51:09.028Z,35.51
2019-02-24T21:53:38.201Z,35.14
2019-02-24T21:56:07.446Z,35.11
2019-02-24T21:58:36.645Z,35.32
2019-02-24T22:01:45.546Z,35.37
2019-02-24T22:04:14.792Z,35.38
2019-02-24T22:06:44.042Z,35.63
2019-02-24T22:09:13.635Z,35.34
2019-02-24T22:11:42.890Z,35.20
2019-02-24T22:14:12.075Z,35.28
2019-02-24T22:16:41.271Z,35.41
2019-02-24T22:19:10.523Z,35.42
2019-02-24T22:21:39.743Z,35.52
2019-02-24T22:24:09.333Z,35.55
2019-02-24T22:26:38.917Z,35.69
2019-02-24T22:29:08.498Z,35.79
2019-02-24T22:31:37.683Z,35.70
2019-02-24T22:34:06.908Z,35.89
2019-02-24T22:36:36.090Z,35.96
2019-02-24T22:39:44.732Z,35.86
2019-02-24T22:42:13.918Z,35.89
2019-02-24T22:44:43.169Z,36.24
2019-02-24T22:47:12.715Z,36.09
2019-02-24T22:49:41.964Z,36.26
2019-02-24T22:52:11.148Z,36.48
2019-02-24T22:54:40.394Z,36.38
2019-02-24T22:57:09.863Z,36.50
2019-02-24T22:59:39.479Z,36.60
2019-02-24T23:02:08.946Z,37.13
2019-02-24T23:04:38.246Z,36.81
2019-02-24T23:07:07.448Z,36.97
2019-02-24T23:09:36.681Z,36.81
2019-02-24T23:12:05.867Z,36.95
2019-02-24T23:14:35.257Z,36.79
2019-02-24T23:17:04.551Z,36.58
2019-02-24T23:19:34.178Z,36.75
2019-02-24T23:22:03.761Z,36.84
2019-02-24T23:24:33.017Z,37.19
2019-02-24T23:27:02.199Z,36.98
2019-02-24T23:29:31.452Z,37.62
2019-02-24T23:32:00.639Z,37.66
2019-02-24T23:34:30.286Z,37.59
2019-02-24T23:36:59.476Z,37.72
2019-02-24T23:39:28.742Z,38.43
2019-02-24T23:41:57.966Z,38.71
2019-02-24T23:44:27.143Z,38.64
2019-02-24T23:46:56.989Z,38.68
2019-02-24T23:49:26.200Z,38.27
2019-02-24T23:52:34.832Z,38.04
2019-02-24T23:55:04.423Z,38.13
2019-02-24T23:57:33.680Z,38.34
